Terminal Aerodrome Forecast
Issued by NWS Austin/San Antonio, TX

Home | Current Version | Previous Version | Text Only | Print | Product List | Glossary On
Versions: 1 2 3 4 5 6 7 8 9 10 11 12 13 14 15 16 17 18
000
FTUS44 KEWX 290300 AAA
TAFSAT
TAF AMD
KSAT 290337Z 2904/3006 16012KT P6SM FEW250
     FM291000 20005KT P6SM SCT080 SCT200
     FM291700 15008KT P6SM SCT080 SCT200
     FM292100 14009KT P6SM BKN080 BKN200
     FM300400 16009KT P6SM BKN080=

USA.gov is the U.S. government's official web portal to all federal, state and local government web resources and services.